Blackville, Arkansas
Current Conditions -  °F | °C
As of 3:56 AM on Saturday 22 Nov 2014 (Local Time) from KM19 Reporting Station
Haze Haze  
Wind Chill: 36°   Ceiling: 10000
Heat Index: 41°   Visibility: 5mi
Dew Point: 41°   Wind: 7mph
Humidity: 100%   Direction: 150°SSE
Pressure: 30.23"   Gusts: NA
Location:  35.5678°N, 91.2073°W
Report Text: KM19 220956Z AUTO 15006KT 5SM BR FEW050 BKN100 05/05 A3023 RMK AO2 T00500050 BKN V SCT SLP238
Loading
Personal Weather Stations






























Interactive Weather Map New forecast layout! Learn more

10-Day Weather Forecast

Advertisements
Track Severe Weather on mobile